La Posta (441, 1215, 629) Station Data

Red Flag Warning: Yes
Fire Weather Zone: 258
SDGE Region: Mountain Empire
Lat/Lon: 32.714/-116.404

Observations

Time Wind Speed/Gust Temp(F) RH Fuel Moist Fuel Temp(F) Dewpt(F) Tmax(F) Tmin(F) Accum Precip 10-min Precip SL Press(mb)
6/27 5:00pm 271 18 G 28 85° 8% - - 18° 89.5° 72.1° - - -
6/27 4:50pm 267 18 G 27 85° 8% - - 18° 89.5° 72.1° - - -
6/27 4:40pm 271 18 G 27 85° 8% - - 18° 89.5° 72.1° - - -
6/27 4:30pm 273 20 G 29 85° 8% - - 18° 89.5° 72.1° - - -
6/27 4:20pm 269 20 G 31 85° 8% - - 18° 89.5° 72.1° - - -
6/27 4:10pm 267 19 G 28 86° 8% - - 19° 89.5° 72.1° - - -
6/27 4:00pm 265 18 G 28 86° 9% - - 19° 89.5° 72.1° - - -
6/27 3:50pm 268 19 G 30 86° 8% - - 19° 89.5° 72.1° - - -
6/27 3:40pm 271 20 G 30 86° 8% - - 18° 89.5° 72.1° - - -
6/27 3:30pm 275 21 G 31 86° 8% - - 18° 89.5° 72.1° - - -
6/27 3:20pm 276 21 G 31 87° 8% - - 17° 89.5° 72.1° - - -
6/27 3:10pm 277 18 G 28 87° 8% - - 20° 89.5° 72.1° - - -
6/27 3:00pm 280 19 G 29 87° 8% - - 20° 89.5° 72.1° - - -
6/27 2:50pm 278 19 G 30 87° 8% - - 20° 89.5° 72.1° - - -
6/27 2:40pm 277 19 G 29 87° 9% - - 21° 89.5° 72.1° - - -
6/27 2:30pm 276 19 G 29 88° 9% - - 21° 89.5° 72.1° - - -
6/27 2:20pm 282 19 G 28 88° 8% - - 19° 89.5° 72.1° - - -
6/27 2:10pm 284 19 G 29 88° 8% - - 20° 89.5° 72.1° - - -
6/27 2:00pm 280 19 G 29 88° 9% - - 21° 89.5° 72.1° - - -
6/27 1:50pm 275 19 G 27 87° 8% - - 20° 89.5° 72.1° - - -
6/27 1:40pm 268 19 G 27 88° 8% - - 18° 89.5° 72.1° - - -
6/27 1:30pm 272 18 G 27 88° 8% - - 19° 89.5° 72.1° - - -
6/27 1:20pm 251 17 G 26 88° 8% - - 18° 89.5° 72.1° - - -
6/27 1:10pm 256 17 G 26 88° 8% - - 19° 89.5° 72.1° - - -
6/27 1:00pm 261 16 G 27 88° 8% - - 20° 88.5° 72.1° - - -
6/27 12:50pm 253 17 G 24 88° 8% - - 20° 88.4° 72.1° - - -
6/27 12:40pm 264 17 G 26 87° 8% - - 20° 88.4° 72.1° - - -
6/27 12:30pm 265 19 G 29 87° 8% - - 18° 88.4° 72.1° - - -
6/27 12:20pm 256 15 G 25 87° 8% - - 20° 88.4° 72.1° - - -
6/27 12:10pm 266 17 G 27 87° 8% - - 18° 88.4° 72.1° - - -
6/27 12:00pm 269 16 G 31 88° 8% - - 19° 88.4° 72.1° - - -
6/27 11:50am 274 17 G 24 86° 8% - - 19° 86.9° 72.1° - - -
6/27 11:40am 281 18 G 27 86° 8% - - 18° 86.9° 72.1° - - -
6/27 11:30am 270 17 G 26 86° 8% - - 17° 86.9° 72.1° - - -
6/27 11:20am 270 18 G 28 86° 8% - - 18° 86.3° 72.1° - - -
6/27 11:10am 269 16 G 26 85° 9% - - 20° 85.8° 72.1° - - -
6/27 11:00am 268 17 G 25 85° 8% - - 18° 85.8° 72.1° - - -
6/27 10:50am 271 16 G 27 85° 9% - - 19° 85.8° 72.1° - - -
6/27 10:40am 272 18 G 27 84° 9% - - 18° 85.4° 72.1° - - -
6/27 10:30am 270 17 G 26 85° 9% - - 19° 85.4° 72.1° - - -
6/27 10:20am 269 17 G 24 85° 9% - - 19° 85.4° 72.1° - - -
6/27 10:10am 263 15 G 23 84° 9% - - 20° 85.4° 72.1° - - -
6/27 10:00am 273 13 G 19 84° 9% - - 20° 84.7° 72.1° - - -
6/27 9:50am 286 15 G 21 83° 9% - - 19° 83.5° 72.1° - - -
6/27 9:40am 276 15 G 22 83° 9% - - 19° 83.5° 72.1° - - -
6/27 9:30am 282 14 G 20 83° 9% - - 19° 83.2° 72.1° - - -
6/27 9:20am 273 14 G 20 82° 9% - - 19° 83° 72.1° - - -
6/27 9:10am 273 13 G 21 82° 9% - - 19° 83° 72.1° - - -
6/27 8:50am 275 12 G 19 82° 10% - - 19° 82° 72.1° - - -
6/27 8:40am 286 12 G 18 81° 10% - - 18° 81.3° 72.1° - - -
6/27 8:30am 285 13 G 20 80° 10% - - 18° 80.7° 72.1° - - -
6/27 8:20am 279 13 G 20 80° 10% - - 18° 80.3° 72.1° - - -
6/27 8:10am 276 14 G 20 79° 10% - - 18° 79.8° 72.1° - - -
6/27 8:00am 277 12 G 19 79° 10% - - 18° 79.5° 72.1° - - -
6/27 7:50am 277 11 G 18 79° 11% - - 19° 78.9° 72.1° - - -
6/27 7:40am 277 10 G 17 78° 11% - - 19° 78.2° 72.1° - - -
6/27 7:30am 280 10 G 16 77° 12% - - 20° 77.1° 72.1° - - -
6/27 7:20am 280 11 G 15 76° 12% - - 19° 76.4° 72.1° - - -
6/27 7:10am 279 11 G 17 75° 12% - - 19° 75.8° 72.1° - - -
6/27 7:00am 281 11 G 17 75° 12% - - 19° 75.4° 72.1° - - -
6/27 6:50am 283 10 G 14 74° 13% - - 19° 75.3° 72.1° - - -
6/27 6:40am 283 10 G 13 74° 12% - - 18° 75.3° 72.1° - - -
6/27 6:30am 281 9 G 14 73° 12% - - 18° 75.3° 72.1° - - -
6/27 6:20am 282 10 G 14 73° 12% - - 18° 75.3° 72.1° - - -
6/27 6:10am 276 9 G 13 73° 12% - - 17° 75.3° 72.1° - - -
6/27 6:00am 279 9 G 14 73° 12% - - 17° 75.3° 72.1° - - -
6/27 5:50am 284 9 G 13 73° 12% - - 17° 75.3° 72.4° - - -
6/27 5:40am 281 9 G 14 73° 12% - - 17° 75.3° 72.6° - - -
6/27 5:30am 280 9 G 13 73° 12% - - 17° 75.3° 73° - - -
6/27 5:20am 279 10 G 15 74° 12% - - 17° 75.3° 73.1° - - -
6/27 5:10am 281 11 G 17 74° 12% - - 17° 75.3° 73.1° - - -
6/27 5:00am 280 12 G 16 74° 12% - - 18° 75.3° 73.1° - - -
6/27 4:50am 276 12 G 16 74° 12% - - 18° 75.3° 73.1° - - -
6/27 4:40am 273 12 G 17 74° 12% - - 18° 75.3° 73.1° - - -
6/27 4:30am 272 12 G 18 74° 12% - - 18° 75.3° 73.1° - - -
6/27 4:20am 274 12 G 17 74° 12% - - 18° 75.3° 73.1° - - -
6/27 4:10am 274 10 G 14 74° 12% - - 18° 75.3° 73.1° - - -
6/27 4:00am 278 10 G 14 74° 12% - - 18° 75.3° 73.1° - - -
6/27 3:50am 282 11 G 14 74° 12% - - 18° 75.3° 73.1° - - -
6/27 3:40am 282 10 G 15 73° 12% - - 18° 75.3° 73.1° - - -
6/27 3:30am 282 10 G 15 74° 12% - - 18° 75.3° 73.3° - - -
6/27 3:20am 281 10 G 14 74° 12% - - 18° 75.3° 73.4° - - -
6/27 3:10am 278 11 G 17 74° 12% - - 18° 75.3° 73.8° - - -
6/27 3:00am 276 11 G 16 74° 12% - - 18° 75.3° 73.8° - - -
6/27 2:50am 275 11 G 15 74° 12% - - 17° 75.3° 73.8° - - -
6/27 2:40am 275 10 G 14 74° 11% - - 17° 75.3° 73.8° - - -
6/27 2:30am 272 10 G 14 74° 11% - - 17° 75.3° 73.8° - - -
6/27 2:20am 272 10 G 14 74° 11% - - 16° 75.3° 73.8° - - -
6/27 2:10am 269 9 G 12 74° 11% - - 16° 75.3° 73.8° - - -
6/27 2:00am 276 8 G 12 74° 11% - - 16° 75.3° 73.8° - - -
6/27 1:50am 274 10 G 15 75° 10% - - 15° 75.3° 73.8° - - -
6/27 1:40am 274 10 G 16 75° 10% - - 14° 75.3° 73.8° - - -
6/27 1:30am 275 10 G 17 75° 10% - - 14° 75.3° 73.8° - - -
6/27 1:20am 276 9 G 15 74° 10% - - 14° 75.3° 73.8° - - -
6/27 1:10am 279 10 G 13 74° 10% - - 14° 75.3° 74.1° - - -
6/27 1:00am 276 12 G 17 75° 10% - - 14° 75.3° 74.1° - - -
6/27 12:50am 275 12 G 17 75° 10% - - 14° 75.3° 74.1° - - -
6/27 12:40am 271 12 G 17 75° 10% - - 15° 75.3° 74.1° - - -
6/27 12:30am 266 11 G 14 74° 10% - - 15° 75.3° 74.1° - - -
6/27 12:20am 267 11 G 15 75° 10% - - 15° 75.3° 74.4° - - -
6/27 12:10am 267 11 G 15 75° 10% - - 15° 75.3° 74.5° - - -
6/27 12:00am 264 8 G 14 75° 10% - - 15° 94.6° 74.5° - - -
6/26 11:50pm 260 6 G 9 75° 10% - - 15° 94.6° 74.5° - - -
6/26 11:40pm 260 7 G 11 75° 10% - - 15° 94.6° 75° - - -
6/26 11:30pm 256 8 G 14 76° 10% - - 16° 94.6° 75.2° - - -
6/26 11:20pm 262 8 G 14 76° 10% - - 15° 94.6° 75.3° - - -
6/26 11:10pm 267 9 G 15 76° 10% - - 15° 94.6° 75.3° - - -
6/26 11:00pm 269 10 G 17 77° 10% - - 16° 94.6° 75.3° - - -
6/26 10:50pm 273 14 G 23 77° 10% - - 16° 94.6° 75.3° - - -
6/26 10:40pm 270 13 G 20 76° 10% - - 16° 94.6° 75.3° - - -
6/26 10:30pm 268 13 G 19 77° 10% - - 16° 94.6° 75.3° - - -
6/26 10:20pm 266 11 G 17 76° 10% - - 16° 94.6° 75.3° - - -
6/26 10:10pm 273 10 G 17 76° 11% - - 17° 94.6° 75.3° - - -
6/26 10:00pm 268 9 G 12 76° 11% - - 17° 94.6° 75.3° - - -
6/26 9:50pm 266 10 G 17 76° 11% - - 18° 94.6° 75.5° - - -
6/26 9:40pm 269 10 G 16 76° 11% - - 18° 94.6° 75.6° - - -
6/26 9:30pm 275 13 G 19 77° 11% - - 18° 94.6° 76.3° - - -
6/26 9:20pm 272 12 G 18 77° 12% - - 19° 94.6° 76.3° - - -
6/26 9:10pm 277 11 G 16 77° 12% - - 21° 94.6° 76.5° - - -
6/26 9:00pm 279 11 G 16 77° 13% - - 22° 94.6° 76.6° - - -
6/26 8:50pm 284 11 G 17 77° 14% - - 24° 94.6° 77.1° - - -
6/26 8:40pm 287 10 G 15 78° 14% - - 25° 94.6° 77.2° - - -
6/26 8:30pm 287 9 G 13 78° 14% - - 25° 94.6° 77.5° - - -
6/26 8:20pm 294 9 G 15 79° 13% - - 24° 94.6° 78.6° - - -
6/26 8:10pm 289 11 G 18 80° 12% - - 23° 94.6° 79.5° - - -
6/26 8:00pm 284 12 G 20 81° 11% - - 22° 94.6° 80.4° - - -
6/26 7:50pm 279 12 G 20 82° 11% - - 22° 94.6° 80.9° - - -
6/26 7:40pm 283 12 G 18 82° 11% - - 22° 94.6° 80.9° - - -
6/26 7:30pm 281 14 G 22 83° 10% - - 22° 94.6° 80.9° - - -
6/26 7:20pm 279 13 G 23 84° 10% - - 23° 94.6° 80.9° - - -
6/26 7:10pm 282 12 G 19 85° 10% - - 23° 94.6° 80.9° - - -
6/26 7:00pm 289 10 G 18 86° 10% - - 24° 94.6° 80.9° - - -
6/26 6:50pm 297 12 G 18 87° 10% - - 24° 94.6° 80.9° - - -
6/26 6:40pm 299 13 G 21 87° 10% - - 23° 94.6° 80.9° - - -
6/26 6:30pm 294 14 G 23 87° 9% - - 23° 94.6° 80.9° - - -
6/26 6:20pm 300 14 G 22 88° 9% - - 23° 94.6° 80.9° - - -
6/26 6:10pm 291 15 G 24 88° 9% - - 23° 94.6° 80.9° - - -
6/26 6:00pm 305 16 G 25 89° 9% - - 23° 94.6° 80.9° - - -
6/26 5:50pm 306 15 G 25 89° 9% - - 23° 94.6° 80.9° - - -
6/26 5:40pm 309 15 G 22 89° 9% - - 23° 94.6° 80.9° - - -
6/26 5:30pm 305 15 G 25 90° 9% - - 23° 94.6° 80.9° - - -
6/26 5:20pm 310 16 G 26 90° 9% - - 23° 94.6° 80.9° - - -
6/26 5:10pm 303 14 G 22 90° 9% - - 23° 94.6° 80.9° - - -
6/26 5:00pm 312 16 G 23 90° 9% - - 23° 94.6° 80.9° - - -
6/26 4:50pm 313 14 G 24 91° 9% - - 25° 94.6° 80.9° - - -
6/26 4:40pm 307 15 G 24 91° 9% - - 26° 94.6° 80.9° - - -
6/26 4:30pm 316 15 G 25 92° 10% - - 27° 94.6° 80.9° - - -
6/26 4:20pm 312 16 G 23 92° 10% - - 27° 94.6° 80.9° - - -
6/26 4:10pm 305 16 G 24 92° 10% - - 27° 94.6° 80.9° - - -
6/26 4:00pm 300 14 G 24 92° 10% - - 28° 94.6° 80.9° - - -
6/26 3:50pm 322 15 G 26 93° 10% - - 28° 94.6° 80.9° - - -
6/26 3:40pm 303 13 G 22 94° 10% - - 30° 94.6° 80.9° - - -
6/26 3:30pm 305 14 G 21 93° 11% - - 30° 94.6° 80.9° - - -
6/26 3:20pm 310 13 G 21 94° 10% - - 30° 94.6° 80.9° - - -
6/26 3:10pm 312 14 G 21 93° 11% - - 31° 94.6° 80.9° - - -
6/26 3:00pm 304 15 G 24 93° 11% - - 31° 94.6° 80.9° - - -
6/26 2:50pm 309 12 G 22 93° 11% - - 31° 94.6° 80.9° - - -
6/26 2:40pm 312 15 G 23 92° 11% - - 30° 94.6° 80.9° - - -
6/26 2:30pm 295 15 G 23 92° 11% - - 29° 94.6° 80.9° - - -
6/26 2:20pm 304 14 G 23 92° 11% - - 30° 94.6° 80.9° - - -
6/26 2:10pm 306 12 G 21 93° 11% - - 30° 94.6° 80.9° - - -
6/26 2:00pm 312 16 G 25 93° 10% - - 28° 94.6° 80.9° - - -
6/26 1:50pm 307 14 G 23 94° 10% - - 28° 94.6° 80.9° - - -
6/26 1:40pm 310 13 G 21 93° 10% - - 28° 94.2° 80.9° - - -
6/26 1:30pm 313 15 G 23 93° 10% - - 27° 94.1° 80.9° - - -
6/26 1:20pm 309 13 G 24 93° 9% - - 27° 94.1° 80.9° - - -
6/26 1:10pm 297 14 G 22 92° 9% - - 26° 94.1° 80.9° - - -
6/26 1:00pm 296 14 G 24 93° 9% - - 27° 94.1° 80.9° - - -
6/26 12:50pm 309 13 G 21 92° 10% - - 27° 93.1° 80.9° - - -
6/26 12:40pm 296 15 G 22 91° 10% - - 27° 92.2° 80.9° - - -
6/26 12:30pm 294 15 G 23 91° 10% - - 27° 92.2° 80.9° - - -
6/26 12:20pm 300 12 G 23 91° 10% - - 27° 92.2° 80.9° - - -
6/26 12:10pm 306 14 G 21 91° 10% - - 27° 92.1° 80.9° - - -
6/26 12:00pm 326 13 G 19 92° 10% - - 28° 92.1° 80.9° - - -
6/26 11:50am 312 12 G 19 91° 10% - - 27° 92.1° 80.9° - - -
6/26 11:40am 306 13 G 21 91° 10% - - 27° 91.8° 80.9° - - -
6/26 11:30am 295 10 G 17 90° 10% - - 27° 91.6° 80.9° - - -
6/26 11:20am 296 12 G 20 90° 10% - - 27° 91.6° 80.9° - - -
6/26 11:10am 294 9 G 16 91° 10% - - 27° 91.6° 80.9° - - -
6/26 11:00am 299 10 G 18 90° 10% - - 27° 91.4° 80.9° - - -
6/26 10:50am 298 12 G 16 91° 10% - - 28° 91.4° 80.9° - - -
6/26 10:40am 290 12 G 18 90° 11% - - 27° 91° 80.9° - - -
6/26 10:30am 300 13 G 18 90° 10% - - 27° 91° 80.9° - - -
6/26 10:20am 300 12 G 17 90° 10% - - 27° 91° 80.9° - - -
6/26 10:10am 295 13 G 22 90° 10% - - 26° 90.3° 80.9° - - -
6/26 10:00am 295 13 G 19 89° 10% - - 26° 90.2° 80.9° - - -
6/26 9:50am 290 14 G 21 89° 10% - - 26° 90.2° 80.9° - - -
6/26 9:40am 300 12 G 20 89° 11% - - 27° 90.2° 80.9° - - -
6/26 9:30am 314 9 G 15 89° 11% - - 27° 90.2° 80.9° - - -
6/26 9:20am 306 9 G 17 88° 11% - - 26° 90.2° 80.9° - - -
6/26 9:10am 300 8 G 12 89° 11% - - 27° 90.2° 80.9° - - -
6/26 9:00am 304 7 G 12 89° 11% - - 27° 90.2° 80.9° - - -
6/26 8:50am 292 5 G 10 89° 11% - - 28° 90.2° 80.9° - - -
6/26 8:40am 312 6 G 10 89° 11% - - 27° 89.2° 80.9° - - -
6/26 8:30am 307 5 G 13 88° 11% - - 27° 88.8° 80.9° - - -
6/26 8:20am 337 5 G 10 87° 11% - - 27° 87.9° 80.9° - - -
6/26 8:10am 315 5 G 11 87° 12% - - 28° 87.4° 80.9° - - -
6/26 8:00am 324 6 G 10 87° 11% - - 27° 87.4° 80.9° - - -
6/26 7:50am 341 6 G 10 87° 11% - - 27° 87° 80.9° - - -
6/26 7:40am 332 5 G 8 86° 12% - - 27° 86.7° 80.9° - - -
6/26 7:30am 356 4 G 8 86° 11% - - 26° 86.7° 80.9° - - -
6/26 7:20am 318 5 G 10 86° 11% - - 26° 86.7° 80.9° - - -
6/26 7:10am 334 6 G 14 86° 11% - - 26° 86.3° 80.9° - - -
6/26 7:00am 337 6 G 9 85° 11% - - 25° 85.3° 80.9° - - -
6/26 6:50am 334 6 G 10 85° 12% - - 25° 85° 80.9° - - -
6/26 6:40am 341 5 G 11 84° 11% - - 25° 84.6° 80.9° - - -
6/26 6:30am 330 7 G 9 84° 11% - - 24° 84.4° 80.9° - - -
6/26 6:20am 331 8 G 12 84° 11% - - 24° 84.4° 80.9° - - -
6/26 6:10am 324 8 G 12 84° 11% - - 23° 84.4° 80.9° - - -
6/26 6:00am 320 8 G 12 83° 11% - - 24° 84.4° 80.9° - - -